Time;durP1;ratioP1;P1;durP2;ratioP2;P2;SDS_P1;SDS_P2;PMS_P1;PMS_P2;Temp;Humidity;BMP_temperature;BMP_pressure;BME280_temperature;BME280_humidity;BME280_pressure;Samples;Min_cycle;Max_cycle;Signal;HPM_P1;HPM_P2
2022/09/07 00:05:10;;;;;;;1.73;0.90;;;;;;;;;;20695475;28;20205;-70
2022/09/07 00:15:12;;;;;;;2.03;0.77;;;;;;;;;;20692205;28;20279;-70
2022/09/07 00:25:13;;;;;;;3.30;0.77;;;;;;;;;;20707517;28;20220;-70
2022/09/07 00:35:15;;;;;;;1.58;0.93;;;;;;;;;;20681775;28;20783;-70
2022/09/07 00:45:18;;;;;;;1.70;0.82;;;;;;;;;;20675519;28;20275;-70
2022/09/07 00:55:22;;;;;;;2.58;0.77;;;22.10;99.90;;;;;;20691325;28;20260;-70
2022/09/07 01:05:44;;;;;;;2.95;1.05;;;22.20;99.90;;;;;;20675534;28;20219;-70
2022/09/07 01:16:08;;;;;;;1.88;0.85;;;;;;;;;;20721546;28;20276;-70
2022/09/07 01:26:33;;;;;;;1.75;1.10;;;;;;;;;;20688680;28;20216;-70
2022/09/07 01:36:46;;;;;;;1.27;1.05;;;21.90;99.90;;;;;;20695349;28;20236;-70
2022/09/07 01:46:59;;;;;;;1.27;0.80;;;21.60;99.90;;;;;;20708554;28;20236;-70
2022/09/07 01:57:03;;;;;;;3.28;0.95;;;;;;;;;;20688633;28;20262;-71
2022/09/07 02:07:25;;;;;;;1.80;1.30;;;;;;;;;;20701675;28;20223;-71
2022/09/07 02:17:38;;;;;;;5.47;1.27;;;21.60;99.90;;;;;;20718531;28;20225;-70
2022/09/07 02:27:51;;;;;;;2.13;1.10;;;;;;;;;;20716923;28;20210;-70
2022/09/07 02:37:54;;;;;;;4.78;1.13;;;;;;;;;;20721686;28;20266;-70
2022/09/07 02:47:55;;;;;;;1.83;1.05;;;;;;;;;;20706071;28;20213;-70
2022/09/07 02:58:15;;;;;;;2.10;1.10;;;21.70;99.90;;;;;;20696608;28;20269;-70
2022/09/07 03:08:37;;;;;;;1.95;1.17;;;;;;;;;;20729478;28;20678;-70
2022/09/07 03:18:41;;;;;;;1.40;0.93;;;21.50;99.90;;;;;;20697120;28;20305;-70
2022/09/07 03:28:43;;;;;;;2.30;1.40;;;;;;;;;;20701128;28;20291;-71
2022/09/07 03:38:45;;;;;;;2.35;1.30;;;;;;;;;;20688310;28;20693;-70
2022/09/07 03:48:48;;;;;;;1.85;1.08;;;21.40;99.90;;;;;;20720069;28;20309;-70
2022/09/07 03:58:50;;;;;;;3.25;1.10;;;;;;;;;;20698083;28;20342;-70
2022/09/07 04:08:52;;;;;;;3.50;1.50;;;;;;;;;;20708980;28;20628;-70
2022/09/07 04:18:53;;;;;;;2.38;1.35;;;21.30;99.90;;;;;;20696293;28;20787;-70
2022/09/07 04:28:55;;;;;;;2.35;1.30;;;;;;;;;;20677142;28;20299;-70
2022/09/07 04:39:01;;;;;;;2.13;1.20;;;;;;;;;;20694618;28;20317;-70
2022/09/07 04:49:07;;;;;;;4.80;1.52;;;21.00;99.90;;;;;;20681874;28;20221;-71
2022/09/07 04:59:10;;;;;;;1.83;1.20;;;;;;;;;;20727534;28;20224;-70
2022/09/07 05:09:11;;;;;;;1.83;1.37;;;;;;;;;;20676967;28;20298;-70
2022/09/07 05:19:14;;;;;;;2.65;1.20;;;;;;;;;;20755031;22;20225;-77
2022/09/07 05:29:16;;;;;;;1.60;1.15;;;;;;;;;;20831267;28;20267;-77
2022/09/07 05:39:19;;;;;;;2.50;1.30;;;;;;;;;;20820665;28;20225;-78
2022/09/07 05:49:21;;;;;;;1.70;1.20;;;;;;;;;;20828941;28;20239;-79
2022/09/07 05:59:23;;;;;;;2.87;1.40;;;;;;;;;;20835945;28;20224;-77
2022/09/07 06:09:24;;;;;;;1.93;1.10;;;20.90;99.90;;;;;;20808611;28;20215;-76
2022/09/07 06:19:26;;;;;;;2.17;1.23;;;;;;;;;;20794116;28;20229;-78
2022/09/07 06:29:28;;;;;;;2.67;1.33;;;;;;;;;;20829037;28;20244;-78
2022/09/07 06:39:30;;;;;;;2.83;1.30;;;;;;;;;;20823690;28;20263;-78
2022/09/07 06:49:32;;;;;;;2.17;1.23;;;;;;;;;;20814140;28;20224;-77
2022/09/07 06:59:34;;;;;;;1.33;0.80;;;21.30;99.90;;;;;;20828074;28;20221;-77
2022/09/07 07:09:35;;;;;;;1.13;0.50;;;;;;;;;;20826783;28;20210;-76
2022/09/07 07:19:37;;;;;;;1.95;0.70;;;;;;;;;;20825058;28;20271;-76
2022/09/07 07:29:39;;;;;;;2.40;0.70;;;;;;;;;;20823488;28;20233;-76
2022/09/07 07:39:41;;;;;;;1.25;0.70;;;;;;;;;;20808627;28;20271;-78
2022/09/07 07:49:43;;;;;;;3.30;0.60;;;;;;;;;;20811093;28;20215;-77
2022/09/07 07:59:45;;;;;;;2.45;0.70;;;;;;;;;;20828796;28;20603;-79
2022/09/07 08:09:47;;;;;;;1.55;0.52;;;23.20;99.90;;;;;;20802745;28;20274;-80
2022/09/07 08:19:49;;;;;;;1.75;0.60;;;;;;;;;;20816248;28;20703;-79
2022/09/07 08:29:51;;;;;;;1.27;0.68;;;;;;;;;;20822053;28;20211;-79
2022/09/07 08:39:53;;;;;;;1.20;0.52;;;;;;;;;;20836248;28;20639;-79
2022/09/07 08:50:08;;;;;;;1.00;0.50;;;23.60;99.90;;;;;;20819525;28;20210;-81
2022/09/07 09:00:13;;;;;;;2.00;0.60;;;24.00;99.90;;;;;;20837980;28;20225;-81
2022/09/07 09:10:34;;;;;;;2.15;0.60;;;23.60;99.90;;;;;;20839212;28;20620;-80
2022/09/07 09:20:50;;;;;;;2.90;0.60;;;;;;;;;;20829805;28;20708;-79
2022/09/07 09:30:51;;;;;;;0.77;0.50;;;;;;;;;;20839937;28;20214;-81
2022/09/07 09:40:53;;;;;;;0.90;0.60;;;;;;;;;;20810650;28;20225;-79
2022/09/07 09:50:57;;;;;;;3.45;0.60;;;;;;;;;;20819663;28;20233;-80
2022/09/07 10:01:01;;;;;;;0.90;0.57;;;25.20;99.90;;;;;;20830391;28;20580;-81
2022/09/07 10:11:03;;;;;;;1.60;0.50;;;;;;;;;;20858341;28;20209;-81
2022/09/07 10:21:24;;;;;;;2.60;0.55;;;25.70;99.90;;;;;;20864764;28;20248;-81
2022/09/07 10:31:30;;;;;;;2.30;0.55;;;25.90;99.90;;;;;;20869504;28;20208;-80
2022/09/07 10:41:44;;;;;;;2.50;0.60;;;;;;;;;;20871155;28;20284;-80
2022/09/07 10:52:02;;;;;;;2.17;0.70;;;26.40;99.90;;;;;;20845486;28;20688;-80
2022/09/07 11:02:22;;;;;;;1.17;0.60;;;26.50;99.90;;;;;;20838034;28;20193;-80
2022/09/07 11:12:30;;;;;;;0.82;0.40;;;26.70;99.90;;;;;;20866871;28;20295;-80
2022/09/07 11:22:39;;;;;;;1.80;0.50;;;;;;;;;;20894528;22;20731;-73
2022/09/07 11:32:44;;;;;;;0.35;0.30;;;;;;;;;;20875085;28;20224;-72
2022/09/07 11:42:58;;;;;;;0.50;0.40;;;26.60;99.90;;;;;;20859451;28;20554;-73
2022/09/07 11:53:04;;;;;;;0.60;0.40;;;;;;;;;;20875716;28;20224;-72
2022/09/07 12:03:23;;;;;;;1.13;0.50;;;;;;;;;;20874355;28;20639;-72
2022/09/07 12:13:53;;;;;;;0.40;0.20;;;26.80;99.90;;;;;;20857464;28;20224;-71
2022/09/07 12:23:58;;;;;;;0.90;0.50;;;26.20;99.90;;;;;;20856190;28;20702;-71
2022/09/07 12:34:32;;;;;;;0.38;0.20;;;26.10;99.90;;;;;;20870863;28;20265;-71
2022/09/07 12:44:36;;;;;;;0.32;0.25;;;26.20;99.90;;;;;;20870358;28;20708;-71
2022/09/07 12:54:47;;;;;;;0.80;0.32;;;26.90;99.90;;;;;;20869879;28;20215;-72
2022/09/07 13:05:14;;;;;;;0.95;0.40;;;27.40;99.90;;;;;;20852959;28;20686;-73
2022/09/07 13:15:39;;;;;;;0.30;0.30;;;;;;;;;;20868800;28;20270;-71
2022/09/07 13:25:44;;;;;;;0.32;0.30;;;27.70;99.90;;;;;;20864925;28;20269;-72
2022/09/07 13:35:47;;;;;;;0.70;0.32;;;;;;;;;;20881855;28;20218;-71
2022/09/07 13:45:54;;;;;;;0.40;0.30;;;27.70;92.20;;;;;;20869353;28;20210;-72
2022/09/07 13:56:14;;;;;;;0.52;0.32;;;27.10;98.00;;;;;;20867893;28;20270;-70
2022/09/07 14:06:27;;;;;;;0.70;0.30;;;26.80;99.90;;;;;;20883672;28;20206;-70
2022/09/07 14:16:30;;;;;;;0.30;0.20;;;;;;;;;;20866639;28;20208;-71
2022/09/07 14:26:32;;;;;;;0.85;0.40;;;;;;;;;;20865402;28;20219;-70
2022/09/07 14:36:37;;;;;;;0.70;0.30;;;26.30;99.90;;;;;;20864781;28;20245;-70
2022/09/07 14:46:39;;;;;;;0.80;0.50;;;;;;;;;;20863255;28;20213;-71
2022/09/07 14:56:41;;;;;;;0.82;0.40;;;;;;;;;;20861767;28;20224;-70
2022/09/07 15:06:45;;;;;;;1.65;0.30;;;;;;;;;;20859697;28;20216;-71
2022/09/07 15:17:00;;;;;;;0.52;0.20;;;27.20;97.70;;;;;;20861257;28;20691;-70
2022/09/07 15:27:17;;;;;;;0.32;0.20;;;;;;;;;;20892781;28;20282;-71
2022/09/07 15:37:18;;;;;;;0.38;0.20;;;;;;;;;;20875448;28;20220;-71
2022/09/07 15:47:20;;;;;;;0.85;0.30;;;;;;;;;;20858309;28;20212;-71
2022/09/07 15:57:25;;;;;;;1.08;0.50;;;;;;;;;;20857357;28;20258;-71
2022/09/07 16:07:27;;;;;;;0.30;0.20;;;;;;;;;;20872967;28;20686;-71
2022/09/07 16:17:29;;;;;;;2.75;0.60;;;;;;;;;;20839678;28;20275;-71
2022/09/07 16:27:31;;;;;;;0.20;0.20;;;;;;;;;;20838930;28;20219;-70
2022/09/07 16:37:33;;;;;;;0.50;0.30;;;;;;;;;;20838544;28;20224;-71
2022/09/07 16:47:34;;;;;;;2.00;0.45;;;;;;;;;;20838388;28;20219;-70
2022/09/07 16:57:36;;;;;;;0.40;0.30;;;;;;;;;;20853994;28;20634;-70
2022/09/07 17:07:38;;;;;;;0.75;0.30;;;;;;;;;;20853103;28;20204;-70
2022/09/07 17:17:40;;;;;;;0.40;0.25;;;;;;;;;;20869831;28;20767;-70
2022/09/07 17:27:43;;;;;;;0.50;0.22;;;;;;;;;;20797974;23;20311;-71
2022/09/07 17:37:45;;;;;;;0.95;0.30;;;;;;;;;;20818357;28;20334;-71
2022/09/07 17:47:49;;;;;;;1.35;0.60;;;;;;;;;;20813271;28;20225;-72
2022/09/07 17:57:50;;;;;;;0.50;0.40;;;;;;;;;;20811779;28;20220;-73
2022/09/07 18:07:52;;;;;;;2.78;0.40;;;;;;;;;;20802929;28;20216;-70
2022/09/07 18:17:56;;;;;;;2.33;0.60;;;;;;;;;;20815245;28;20279;-71
2022/09/07 18:27:58;;;;;;;1.48;0.50;;;;;;;;;;20823944;28;20234;-72
2022/09/07 18:37:59;;;;;;;0.30;0.20;;;;;;;;;;20813053;28;20213;-73
2022/09/07 18:48:01;;;;;;;0.95;0.30;;;;;;;;;;20821928;28;20293;-71
2022/09/07 18:58:03;;;;;;;1.45;0.30;;;;;;;;;;20823908;28;20283;-71
2022/09/07 19:08:07;;;;;;;0.68;0.40;;;;;;;;;;20821244;28;20615;-71
2022/09/07 19:18:09;;;;;;;1.60;0.30;;;;;;;;;;20821656;28;20226;-71
2022/09/07 19:28:11;;;;;;;0.75;0.30;;;;;;;;;;20808133;28;20545;-71
2022/09/07 19:38:13;;;;;;;0.55;0.40;;;;;;;;;;20818240;28;20222;-72
2022/09/07 19:48:14;;;;;;;0.50;0.30;;;;;;;;;;20816374;28;20305;-72
2022/09/07 19:58:16;;;;;;;0.38;0.32;;;;;;;;;;20816785;28;20283;-73
2022/09/07 20:08:18;;;;;;;1.85;0.40;;;;;;;;;;20811702;28;20217;-73
2022/09/07 20:18:19;;;;;;;0.70;0.40;;;;;;;;;;20816661;28;20275;-73
2022/09/07 20:28:21;;;;;;;0.22;0.20;;;;;;;;;;20813932;28;20719;-73
2022/09/07 20:38:23;;;;;;;0.70;0.50;;;;;;;;;;20814693;28;20712;-73
2022/09/07 20:48:25;;;;;;;0.73;0.40;;;;;;;;;;20814283;28;20557;-73
2022/09/07 20:58:27;;;;;;;0.30;0.30;;;;;;;;;;20816022;28;20221;-73
2022/09/07 21:08:29;;;;;;;0.73;0.47;;;;;;;;;;20815353;28;20292;-73
2022/09/07 21:18:31;;;;;;;3.78;0.50;;;23.50;99.90;;;;;;20815714;28;20234;-71
2022/09/07 21:28:33;;;;;;;0.40;0.40;;;;;;;;;;20813370;28;20225;-71
2022/09/07 21:38:36;;;;;;;1.38;0.50;;;;;;;;;;20814445;28;20579;-73
2022/09/07 21:48:38;;;;;;;0.90;0.43;;;23.60;99.90;;;;;;20812754;28;20213;-73
2022/09/07 21:58:40;;;;;;;1.00;0.65;;;;;;;;;;20811398;28;20220;-73
2022/09/07 22:08:42;;;;;;;0.80;0.43;;;23.60;99.90;;;;;;20829439;28;20274;-71
2022/09/07 22:18:44;;;;;;;0.55;0.40;;;;;;;;;;20811087;28;20630;-72
2022/09/07 22:28:46;;;;;;;1.08;0.60;;;;;;;;;;20825344;28;20616;-72
2022/09/07 22:38:49;;;;;;;0.40;0.30;;;;;;;;;;20827282;28;20264;-72
2022/09/07 22:48:55;;;;;;;0.40;0.40;;;;;;;;;;20827392;28;20225;-73
2022/09/07 22:58:58;;;;;;;0.90;0.50;;;;;;;;;;20825668;28;20225;-71
2022/09/07 23:09:01;;;;;;;0.60;0.32;;;;;;;;;;20825319;28;20618;-71
2022/09/07 23:19:03;;;;;;;0.52;0.38;;;;;;;;;;20824703;28;20221;-71
2022/09/07 23:29:04;;;;;;;0.70;0.38;;;;;;;;;;20822788;28;20223;-71
2022/09/07 23:39:06;;;;;;;2.47;0.40;;;;;;;;;;20900113;22;20224;-73
2022/09/07 23:49:08;;;;;;;0.40;0.30;;;;;;;;;;20915811;28;20221;-73
2022/09/07 23:59:09;;;;;;;1.17;0.40;;;;;;;;;;20917910;28;20254;-73
